Time;durP1;ratioP1;P1;durP2;ratioP2;P2;SDS_P1;SDS_P2;PMS_P1;PMS_P2;Temp;Humidity;BMP_temperature;BMP_pressure;BME280_temperature;BME280_humidity;BME280_pressure;Samples;Min_cycle;Max_cycle;Signal;HPM_P1;HPM_P2
2023/03/20 00:00:43;;;;;;;;;;;;;;;18.48;58.32;98925.06;2077545;28;19928;-51
2023/03/20 00:01:45;;;;;;;;;;;;;;;18.44;58.36;98926.50;2079666;28;19929;-52
2023/03/20 00:02:45;;;;;;;;;;;;;;;18.46;58.64;98931.66;2077299;28;19932;-50
2023/03/20 00:03:47;;;;;;;;;;;;;;;18.44;58.60;98923.81;2078023;28;19986;-53
2023/03/20 00:04:48;;;;;;;;;;;;;;;18.44;58.50;98931.00;2077025;28;19928;-50
2023/03/20 00:05:51;;;;;;;;;;;;;;;18.45;58.38;98927.31;2077915;28;20474;-54
2023/03/20 00:06:52;;;;;;;;;;;;;;;18.44;58.45;98931.00;2078422;28;20979;-51
2023/03/20 00:07:54;;;;;;;;;;;;;;;18.42;58.63;98930.41;2081156;28;19932;-52
2023/03/20 00:08:56;;;;;;;;;;;;;;;18.42;58.51;98928.53;2079684;28;19936;-53
2023/03/20 00:09:57;;;;;;;;;;;;;;;18.42;58.69;98925.84;2080250;28;20010;-53
2023/03/20 00:10:58;;;;;;;;;;;;;;;18.40;58.53;98927.88;2077709;28;19936;-53
2023/03/20 00:11:59;;;;;;;;;;;;;;;18.40;58.51;98919.84;2086400;28;20382;-52
2023/03/20 00:13:01;;;;;;;;;;;;;;;18.40;58.34;98925.19;2086361;28;19952;-54
2023/03/20 00:14:03;;;;;;;;;;;;;;;18.41;58.54;98926.84;2085650;28;19935;-49
2023/03/20 00:15:05;;;;;;;;;;;;;;;18.39;58.57;98922.72;2088617;28;19928;-52
2023/03/20 00:16:06;;;;;;;;;;;;;;;18.39;58.37;98925.41;2087683;28;19932;-53
2023/03/20 00:17:10;;;;;;;;;;;;;;;18.38;58.58;98929.09;2085675;28;19985;-52
2023/03/20 00:18:12;;;;;;;;;;;;;;;18.38;58.43;98931.78;2082134;28;20557;-53
2023/03/20 00:19:16;;;;;;;;;;;;;;;18.38;58.57;98927.25;2079190;28;19964;-53
2023/03/20 00:20:17;;;;;;;;;;;;;;;18.37;58.67;98939.03;2081048;28;20015;-52
2023/03/20 00:21:20;;;;;;;;;;;;;;;18.37;58.61;98930.97;2087020;28;19928;-51
2023/03/20 00:22:21;;;;;;;;;;;;;;;18.37;58.43;98933.66;2088310;28;20564;-53
2023/03/20 00:23:22;;;;;;;;;;;;;;;18.37;58.39;98936.34;2084217;28;19931;-51
2023/03/20 00:24:23;;;;;;;;;;;;;;;18.35;58.62;98933.00;2085689;28;19925;-52
2023/03/20 00:25:25;;;;;;;;;;;;;;;18.36;58.39;98929.31;2084718;28;20391;-53
2023/03/20 00:26:29;;;;;;;;;;;;;;;18.36;58.36;98933.84;2088857;28;19931;-54
2023/03/20 00:27:31;;;;;;;;;;;;;;;18.35;58.58;98930.31;2087710;28;20020;-52
2023/03/20 00:28:37;;;;;;;;;;;;;;;18.33;58.62;98935.09;2087672;28;19929;-51
2023/03/20 00:29:39;;;;;;;;;;;;;;;18.33;58.69;98932.41;2086457;28;19936;-53
2023/03/20 00:30:39;;;;;;;;;;;;;;;18.33;58.59;98929.72;2085895;28;19991;-53
2023/03/20 00:31:41;;;;;;;;;;;;;;;18.33;58.58;98932.41;2088336;28;19929;-53
2023/03/20 00:32:41;;;;;;;;;;;;;;;18.32;58.78;98928.03;2087530;28;20379;-54
2023/03/20 00:33:43;;;;;;;;;;;;;;;18.32;58.67;98928.03;2089053;28;19932;-51
2023/03/20 00:34:43;;;;;;;;;;;;;;;18.31;58.61;98931.75;2083890;28;20002;-53
2023/03/20 00:35:44;;;;;;;;;;;;;;;18.31;58.67;98921.00;2086751;28;19925;-52
2023/03/20 00:36:46;;;;;;;;;;;;;;;18.30;58.70;98930.06;2085966;28;19985;-54
2023/03/20 00:37:48;;;;;;;;;;;;;;;18.31;58.51;98931.75;2087028;28;19932;-49
2023/03/20 00:38:49;;;;;;;;;;;;;;;18.30;58.74;98930.06;2086495;28;19932;-51
2023/03/20 00:39:51;;;;;;;;;;;;;;;18.31;58.43;98937.13;2085851;28;19925;-51
2023/03/20 00:40:51;;;;;;;;;;;;;;;18.30;58.60;98925.56;2078727;28;20468;-54
2023/03/20 00:41:54;;;;;;;;;;;;;;;18.31;58.58;98929.06;2075548;28;20026;-53
2023/03/20 00:42:58;;;;;;;;;;;;;;;18.28;58.63;98926.78;2079021;28;20710;-52
2023/03/20 00:44:00;;;;;;;;;;;;;;;18.29;58.62;98925.72;2077295;28;20497;-53
2023/03/20 00:45:01;;;;;;;;;;;;;;;18.30;58.45;98924.69;2079572;28;19997;-52
2023/03/20 00:46:02;;;;;;;;;;;;;;;18.29;58.66;98925.72;2076377;28;19928;-53
2023/03/20 00:47:05;;;;;;;;;;;;;;;18.28;58.61;98926.78;2078635;28;19924;-52
2023/03/20 00:48:06;;;;;;;;;;;;;;;18.26;58.34;98921.59;2079714;28;20455;-52
2023/03/20 00:49:08;;;;;;;;;;;;;;;18.26;58.66;98924.28;2078339;28;19998;-52
2023/03/20 00:50:17;;;;;;;;;;;;;;;18.27;58.51;98919.72;2076394;28;20010;-53
2023/03/20 00:51:18;;;;;;;;;;;;;;;18.26;58.36;98915.38;2079369;28;20019;-51
2023/03/20 00:52:22;;;;;;;;;;;;;;;18.26;58.63;98924.28;2078698;28;19937;-52
2023/03/20 00:53:23;;;;;;;;;;;;;;;18.26;58.42;98920.75;2077594;28;20713;-53
2023/03/20 00:54:24;;;;;;;;;;;;;;;18.27;58.59;98922.41;2082714;28;19952;-51
2023/03/20 00:55:27;;;;;;;;;;;;;;;18.25;58.58;98922.63;2085417;28;19932;-53
2023/03/20 00:56:31;;;;;;;;;;;;;;;18.25;58.56;98919.09;2079995;28;20044;-51
2023/03/20 00:57:37;;;;;;;;;;;;;;;18.24;58.52;98918.25;2077349;28;19965;-53
2023/03/20 00:58:38;;;;;;;;;;;;;;;18.24;58.58;98920.94;2077967;27;20021;-52
2023/03/20 00:59:41;;;;;;;;;;;;;;;18.22;58.53;98914.94;2076126;28;19982;-52
2023/03/20 01:00:42;;;;;;;;;;;;;;;18.22;58.65;98919.47;2081044;28;19932;-54
2023/03/20 01:01:44;;;;;;;;;;;;;;;18.22;58.54;98916.78;2080783;28;20440;-53
2023/03/20 01:02:45;;;;;;;;;;;;;;;18.21;58.52;98913.28;2079823;28;20023;-52
2023/03/20 01:03:46;;;;;;;;;;;;;;;18.24;58.68;98920.13;2078655;28;19928;-52
2023/03/20 01:04:47;;;;;;;;;;;;;;;18.21;58.49;98912.44;2077968;28;19932;-53
2023/03/20 01:05:49;;;;;;;;;;;;;;;18.22;58.41;98908.72;2079053;28;19925;-50
2023/03/20 01:06:51;;;;;;;;;;;;;;;18.23;58.51;98913.91;2078230;28;20689;-53
2023/03/20 01:07:54;;;;;;;;;;;;;;;18.21;58.54;98912.44;2075946;28;20291;-52
2023/03/20 01:08:56;;;;;;;;;;;;;;;18.20;58.66;98903.56;2083415;28;20341;-51
2023/03/20 01:09:57;;;;;;;;;;;;;;;18.22;58.48;98911.41;2083942;28;19932;-53
2023/03/20 01:10:59;;;;;;;;;;;;;;;18.19;58.62;98907.28;2077239;28;19936;-52
2023/03/20 01:12:00;;;;;;;;;;;;;;;18.19;58.70;98912.66;2077009;28;20007;-53
2023/03/20 01:13:02;;;;;;;;;;;;;;;18.21;58.60;98912.44;2074013;28;19939;-53
2023/03/20 01:14:03;;;;;;;;;;;;;;;18.20;58.65;98913.50;2077708;28;19929;-49
2023/03/20 01:15:14;;;;;;;;;;;;;;;18.18;58.67;98910.97;2077446;28;19939;-53
2023/03/20 01:16:18;;;;;;;;;;;;;;;18.16;58.66;98906.81;2077609;28;19972;-54
2023/03/20 01:17:21;;;;;;;;;;;;;;;18.16;58.50;98910.34;2079260;28;20333;-52
2023/03/20 01:18:23;;;;;;;;;;;;;;;18.16;58.48;98906.81;2077702;28;19929;-53
2023/03/20 01:19:24;;;;;;;;;;;;;;;18.15;58.61;98905.19;2078358;28;20490;-51
2023/03/20 01:20:26;;;;;;;;;;;;;;;18.17;58.69;98909.34;2080017;28;19928;-53
2023/03/20 01:21:28;;;;;;;;;;;;;;;18.17;58.66;98906.66;2076734;28;19963;-52
2023/03/20 01:22:28;;;;;;;;;;;;;;;18.17;58.67;98905.81;2080453;28;19986;-51
2023/03/20 01:23:31;;;;;;;;;;;;;;;18.16;58.47;98906.81;2077044;28;20499;-51
2023/03/20 01:24:32;;;;;;;;;;;;;;;18.18;58.45;98907.47;2076463;28;19929;-54
2023/03/20 01:25:33;;;;;;;;;;;;;;;18.15;58.72;98906.00;2082081;28;20350;-53
2023/03/20 01:26:35;;;;;;;;;;;;;;;18.17;58.61;98912.03;2079064;28;19967;-54
2023/03/20 01:27:36;;;;;;;;;;;;;;;18.15;58.66;98903.31;2077204;28;19933;-52
2023/03/20 01:28:38;;;;;;;;;;;;;;;18.15;58.46;98894.44;2078423;28;19986;-54
2023/03/20 01:29:39;;;;;;;;;;;;;;;18.15;58.53;98905.19;2079104;28;19931;-54
2023/03/20 01:30:39;;;;;;;;;;;;;;;18.15;58.62;98899.81;2079084;28;19974;-51
2023/03/20 01:31:41;;;;;;;;;;;;;;;18.14;58.72;98903.53;2075423;28;20408;-50
2023/03/20 01:32:42;;;;;;;;;;;;;;;18.15;58.61;98899.81;2078249;28;21438;-51
2023/03/20 01:33:44;;;;;;;;;;;;;;;18.15;58.63;98902.50;2077532;27;20019;-52
2023/03/20 01:34:46;;;;;;;;;;;;;;;18.12;58.52;98900.19;2078399;28;19933;-53
2023/03/20 01:35:48;;;;;;;;;;;;;;;18.14;58.39;98900.84;2076711;27;19940;-54
2023/03/20 01:36:50;;;;;;;;;;;;;;;18.13;58.51;98899.16;2076980;28;19928;-53
2023/03/20 01:37:52;;;;;;;;;;;;;;;18.10;58.41;98900.38;2078132;28;20066;-54
2023/03/20 01:38:55;;;;;;;;;;;;;;;18.11;58.50;98899.38;2076809;28;19936;-52
2023/03/20 01:39:57;;;;;;;;;;;;;;;18.09;58.69;98896.88;2079815;27;20437;-53
2023/03/20 01:41:00;;;;;;;;;;;;;;;18.09;58.62;98894.19;2080445;28;19939;-50
2023/03/20 01:42:02;;;;;;;;;;;;;;;18.09;58.58;98899.56;2078592;28;19929;-50
2023/03/20 01:43:08;;;;;;;;;;;;;;;18.10;58.68;98895.00;2081183;28;19983;-53
2023/03/20 01:44:17;;;;;;;;;;;;;;;18.10;58.54;98903.06;2077093;28;19936;-53
2023/03/20 01:45:19;;;;;;;;;;;;;;;18.07;58.66;98893.53;2075215;28;19929;-54
2023/03/20 01:46:24;;;;;;;;;;;;;;;18.07;58.56;98896.22;2079142;28;19933;-54
2023/03/20 01:47:24;;;;;;;;;;;;;;;18.06;58.59;98897.25;2076985;28;20432;-54
2023/03/20 01:48:33;;;;;;;;;;;;;;;18.05;58.62;98890.25;2077601;28;19990;-54
2023/03/20 01:49:52;;;;;;;;;;;;;;;18.04;58.54;98888.56;2075928;27;19929;-53
2023/03/20 01:50:53;;;;;;;;;;;;;;;18.07;58.56;98887.34;2077892;28;19928;-54
2023/03/20 01:51:55;;;;;;;;;;;;;;;18.06;58.66;98885.69;2073638;28;19939;-50
2023/03/20 01:53:00;;;;;;;;;;;;;;;18.07;58.65;98877.44;2081647;28;19935;-54
2023/03/20 01:54:05;;;;;;;;;;;;;;;18.06;58.69;98885.69;2077020;28;19931;-53
2023/03/20 01:55:07;;;;;;;;;;;;;;;18.04;58.70;98877.81;2076779;28;19933;-53
2023/03/20 01:56:08;;;;;;;;;;;;;;;18.04;58.64;98880.50;2078358;28;19960;-52
2023/03/20 01:57:11;;;;;;;;;;;;;;;18.03;58.47;98878.88;2081639;28;20512;-53
2023/03/20 01:58:14;;;;;;;;;;;;;;;18.04;58.62;98883.19;2078857;28;19928;-54
2023/03/20 01:59:17;;;;;;;;;;;;;;;18.03;58.61;98870.00;2077802;28;19929;-52
2023/03/20 02:00:18;;;;;;;;;;;;;;;18.02;58.74;98874.50;2075964;28;19997;-53
2023/03/20 02:01:20;;;;;;;;;;;;;;;18.03;58.55;98870.81;2077263;28;19932;-54
2023/03/20 02:02:22;;;;;;;;;;;;;;;18.02;58.57;98871.81;2073804;28;20046;-53
2023/03/20 02:03:24;;;;;;;;;;;;;;;18.02;58.49;98866.44;2078732;28;20519;-51
2023/03/20 02:04:26;;;;;;;;;;;;;;;18.00;58.73;98863.16;2077342;28;19960;-53
2023/03/20 02:05:27;;;;;;;;;;;;;;;18.01;58.64;98866.66;2067522;28;20126;-53
2023/03/20 02:06:28;;;;;;;;;;;;;;;18.00;58.69;98865.84;2076066;28;19932;-54
2023/03/20 02:07:31;;;;;;;;;;;;;;;18.01;58.71;98872.03;2076746;28;20473;-54
2023/03/20 02:08:35;;;;;;;;;;;;;;;18.02;58.65;98862.94;2076128;28;19932;-54
2023/03/20 02:09:38;;;;;;;;;;;;;;;18.00;58.57;98868.53;2076906;28;19929;-54
2023/03/20 02:10:39;;;;;;;;;;;;;;;18.01;58.76;98862.13;2084114;28;19933;-53
2023/03/20 02:11:41;;;;;;;;;;;;;;;18.02;58.56;98865.63;2082639;28;20398;-51
2023/03/20 02:12:42;;;;;;;;;;;;;;;18.01;58.55;98866.66;2087367;28;20360;-51
2023/03/20 02:13:44;;;;;;;;;;;;;;;18.00;58.51;98857.78;2085538;28;19925;-54
2023/03/20 02:14:45;;;;;;;;;;;;;;;17.99;58.52;98874.91;2086976;28;19932;-53
2023/03/20 02:15:55;;;;;;;;;;;;;;;17.99;58.75;98866.00;2084542;28;19929;-51
2023/03/20 02:16:56;;;;;;;;;;;;;;;17.98;58.75;98870.56;2086681;28;19928;-54
2023/03/20 02:17:57;;;;;;;;;;;;;;;17.99;58.48;98864.16;2069277;28;20118;-51
2023/03/20 02:18:58;;;;;;;;;;;;;;;17.99;58.78;98866.84;2082969;28;19978;-53
2023/03/20 02:20:04;;;;;;;;;;;;;;;17.99;58.52;98868.69;2084718;28;21023;-50
2023/03/20 02:21:22;;;;;;;;;;;;;;;17.98;58.60;98872.41;2087675;28;20581;-51
2023/03/20 02:22:50;;;;;;;;;;;;;;;17.98;58.61;98873.25;2068221;28;19940;-50
2023/03/20 02:24:12;;;;;;;;;;;;;;;17.98;58.52;98867.88;2083920;28;19940;-51
2023/03/20 02:25:31;;;;;;;;;;;;;;;17.99;58.46;98874.06;2081915;28;19936;-52
2023/03/20 02:26:41;;;;;;;;;;;;;;;17.97;58.55;98876.09;2083882;28;19932;-53
2023/03/20 02:27:52;;;;;;;;;;;;;;;17.95;58.60;98868.25;2086748;28;19933;-52
2023/03/20 02:29:07;;;;;;;;;;;;;;;17.96;58.60;98875.28;2085788;28;19937;-52
2023/03/20 02:30:30;;;;;;;;;;;;;;;17.96;58.80;98871.78;2084366;28;19935;-52
2023/03/20 02:32:03;;;;;;;;;;;;;;;17.94;58.54;98871.97;2085837;28;20367;-51
2023/03/20 02:33:19;;;;;;;;;;;;;;;17.95;58.73;98867.44;2068035;28;19936;-53
2023/03/20 02:34:40;;;;;;;;;;;;;;;17.96;58.67;98869.09;2068929;28;19937;-53
2023/03/20 02:36:00;;;;;;;;;;;;;;;17.94;58.68;98871.13;2060522;28;20568;-51
2023/03/20 02:37:31;;;;;;;;;;;;;;;17.95;58.56;98870.13;2062730;28;19929;-50
2023/03/20 02:38:42;;;;;;;;;;;;;;;17.92;58.52;98871.34;2062620;28;20035;-52
2023/03/20 02:39:51;;;;;;;;;;;;;;;17.92;58.78;98868.66;2074387;28;20027;-54
2023/03/20 02:40:58;;;;;;;;;;;;;;;17.93;58.56;98872.16;2074231;28;19932;-52
2023/03/20 02:42:02;;;;;;;;;;;;;;;17.93;58.60;98873.00;2072842;28;19933;-54
2023/03/20 02:43:10;;;;;;;;;;;;;;;17.93;58.63;98869.47;2073072;28;20139;-55
2023/03/20 02:44:13;;;;;;;;;;;;;;;17.92;58.76;98865.16;2068199;28;19925;-54
2023/03/20 02:45:17;;;;;;;;;;;;;;;17.91;58.74;98869.66;2066785;28;19928;-54
2023/03/20 02:46:23;;;;;;;;;;;;;;;17.90;58.63;98875.22;2068025;28;19974;-52
2023/03/20 02:47:28;;;;;;;;;;;;;;;17.91;58.67;98866.97;2072656;28;19987;-50
2023/03/20 02:48:37;;;;;;;;;;;;;;;17.91;58.66;98855.41;2063729;28;21408;-55
2023/03/20 02:49:53;;;;;;;;;;;;;;;17.91;58.58;98861.59;2064025;28;19951;-55
2023/03/20 02:50:58;;;;;;;;;;;;;;;17.90;58.75;98859.97;2067470;28;19936;-54
2023/03/20 02:52:02;;;;;;;;;;;;;;;17.88;58.66;98856.63;2067038;28;19928;-55
2023/03/20 02:53:11;;;;;;;;;;;;;;;17.91;58.67;98860.78;2069233;28;19994;-54
2023/03/20 02:54:20;;;;;;;;;;;;;;;17.88;58.53;98859.31;2074651;28;19925;-55
2023/03/20 02:55:27;;;;;;;;;;;;;;;17.88;58.78;98851.25;2077844;28;20371;-54
2023/03/20 02:56:32;;;;;;;;;;;;;;;17.90;58.92;98859.97;2068067;28;20523;-53
2023/03/20 02:57:39;;;;;;;;;;;;;;;17.89;58.73;98858.31;2067678;28;20609;-51
2023/03/20 02:58:44;;;;;;;;;;;;;;;17.88;58.86;98862.00;2071026;28;19956;-51
2023/03/20 02:59:49;;;;;;;;;;;;;;;17.88;58.79;98862.00;2069694;28;20001;-53
2023/03/20 03:00:54;;;;;;;;;;;;;;;17.84;58.72;98861.56;2076691;28;20680;-52
2023/03/20 03:01:58;;;;;;;;;;;;;;;17.85;58.72;98859.72;2078613;28;19925;-49
2023/03/20 03:03:05;;;;;;;;;;;;;;;17.85;58.96;98855.16;2079224;28;19933;-49
2023/03/20 03:04:08;;;;;;;;;;;;;;;17.86;58.71;98853.34;2077853;28;19933;-54
2023/03/20 03:05:13;;;;;;;;;;;;;;;17.85;58.64;98857.03;2069057;28;19955;-54
2023/03/20 03:06:16;;;;;;;;;;;;;;;17.85;58.80;98859.72;2067754;28;19975;-53
2023/03/20 03:07:20;;;;;;;;;;;;;;;17.84;58.74;98855.38;2071240;28;20487;-55
2023/03/20 03:08:22;;;;;;;;;;;;;;;17.82;58.69;98858.22;2069801;28;19936;-55
2023/03/20 03:09:27;;;;;;;;;;;;;;;17.84;58.83;98855.38;2068777;28;19936;-53
2023/03/20 03:10:29;;;;;;;;;;;;;;;17.83;58.85;98853.72;2068315;28;19933;-55
2023/03/20 03:11:32;;;;;;;;;;;;;;;17.83;58.86;98862.59;2070498;28;19935;-52
2023/03/20 03:12:35;;;;;;;;;;;;;;;17.83;58.73;98861.78;2070052;28;20775;-50
2023/03/20 03:13:38;;;;;;;;;;;;;;;17.83;58.89;98859.09;2069475;28;20458;-52
2023/03/20 03:14:40;;;;;;;;;;;;;;;17.84;58.68;98860.75;2070710;28;19933;-53
2023/03/20 03:15:44;;;;;;;;;;;;;;;17.84;58.57;98866.09;2064889;28;19967;-53
2023/03/20 03:16:46;;;;;;;;;;;;;;;17.84;58.64;98861.56;2063533;28;19933;-51
2023/03/20 03:17:49;;;;;;;;;;;;;;;17.83;58.66;98862.59;2065051;28;19929;-54
2023/03/20 03:18:53;;;;;;;;;;;;;;;17.82;58.68;98854.72;2070689;28;20002;-51
2023/03/20 03:19:57;;;;;;;;;;;;;;;17.82;58.57;98858.22;2076675;28;21191;-53
2023/03/20 03:20:59;;;;;;;;;;;;;;;17.83;58.73;98859.09;2076775;28;19924;-53
2023/03/20 03:22:01;;;;;;;;;;;;;;;17.82;58.65;98860.09;2072611;28;19943;-52
2023/03/20 03:23:03;;;;;;;;;;;;;;;17.80;58.86;98860.31;2078616;28;19932;-49
2023/03/20 03:24:04;;;;;;;;;;;;;;;17.81;58.79;98855.75;2074517;28;19935;-53
2023/03/20 03:25:10;;;;;;;;;;;;;;;17.82;58.53;98857.41;2077580;27;20013;-53
2023/03/20 03:26:14;;;;;;;;;;;;;;;17.80;58.65;98859.44;2074145;28;19939;-50
2023/03/20 03:27:17;;;;;;;;;;;;;;;17.81;58.69;98861.13;2077736;28;19932;-51
2023/03/20 03:28:22;;;;;;;;;;;;;;;17.80;58.67;98854.09;2073336;28;19940;-54
2023/03/20 03:29:25;;;;;;;;;;;;;;;17.81;58.77;98863.81;2080672;28;19932;-50
2023/03/20 03:30:27;;;;;;;;;;;;;;;17.79;58.68;98853.25;2077737;28;20134;-53
2023/03/20 03:31:29;;;;;;;;;;;;;;;17.79;58.67;98857.81;2078536;28;19982;-51
2023/03/20 03:32:32;;;;;;;;;;;;;;;17.81;58.80;98861.13;2077969;28;19933;-53
2023/03/20 03:33:36;;;;;;;;;;;;;;;17.79;58.67;98847.91;2075504;28;20537;-51
2023/03/20 03:34:38;;;;;;;;;;;;;;;17.79;58.64;98847.91;2073739;27;20039;-54
2023/03/20 03:35:39;;;;;;;;;;;;;;;17.77;58.70;98860.63;2074251;28;19928;-50
2023/03/20 03:36:47;;;;;;;;;;;;;;;17.78;58.78;98856.13;2072951;28;19938;-51
2023/03/20 03:37:55;;;;;;;;;;;;;;;17.77;58.82;98851.75;2072485;27;21215;-52
2023/03/20 03:38:59;;;;;;;;;;;;;;;17.77;58.68;98859.81;2078336;28;19939;-51
2023/03/20 03:40:04;;;;;;;;;;;;;;;17.77;58.89;98865.16;2071702;28;20423;-52
2023/03/20 03:41:17;;;;;;;;;;;;;;;17.76;58.66;98863.53;2079135;28;19988;-52
2023/03/20 03:42:24;;;;;;;;;;;;;;;17.77;58.74;98862.50;2076985;28;19929;-53
2023/03/20 03:43:29;;;;;;;;;;;;;;;17.76;58.63;98868.88;2074620;28;19960;-54
2023/03/20 03:44:35;;;;;;;;;;;;;;;17.74;58.83;98861.00;2072459;28;22158;-53
2023/03/20 03:45:37;;;;;;;;;;;;;;;17.76;58.79;98860.84;2077956;28;19932;-52
2023/03/20 03:46:40;;;;;;;;;;;;;;;17.76;58.72;98860.84;2075190;27;19932;-54
2023/03/20 03:47:44;;;;;;;;;;;;;;;17.76;58.77;98860.84;2073700;28;19964;-52
2023/03/20 03:48:49;;;;;;;;;;;;;;;17.74;58.78;98857.50;2075306;28;19928;-54
2023/03/20 03:49:53;;;;;;;;;;;;;;;17.72;58.80;98857.72;2077018;28;20675;-52
2023/03/20 03:50:55;;;;;;;;;;;;;;;17.72;58.83;98847.00;2075955;28;19925;-53
2023/03/20 03:52:00;;;;;;;;;;;;;;;17.73;58.64;98842.44;2076269;28;19935;-55
2023/03/20 03:53:03;;;;;;;;;;;;;;;17.73;58.72;98853.19;2074404;28;22212;-53
2023/03/20 03:54:07;;;;;;;;;;;;;;;17.73;58.76;98837.91;2075315;28;19998;-56
2023/03/20 03:55:10;;;;;;;;;;;;;;;17.74;58.89;98844.09;2077486;28;20314;-55
2023/03/20 03:56:14;;;;;;;;;;;;;;;17.73;58.68;98848.63;2078019;28;19937;-54
2023/03/20 03:57:16;;;;;;;;;;;;;;;17.72;58.84;98841.63;2070932;28;20497;-54
2023/03/20 03:58:21;;;;;;;;;;;;;;;17.72;58.77;98847.00;2071528;27;20515;-55
2023/03/20 03:59:25;;;;;;;;;;;;;;;17.72;58.69;98851.50;2074346;28;19985;-58
2023/03/20 04:00:27;;;;;;;;;;;;;;;17.72;58.64;98844.31;2075088;28;20342;-53
2023/03/20 04:01:29;;;;;;;;;;;;;;;17.71;58.65;98844.50;2071753;28;19932;-58
2023/03/20 04:02:30;;;;;;;;;;;;;;;17.71;58.70;98844.50;2076912;28;20443;-58
2023/03/20 04:03:34;;;;;;;;;;;;;;;17.70;58.86;98848.19;2076744;28;19936;-60
2023/03/20 04:04:37;;;;;;;;;;;;;;;17.71;58.68;98844.50;2073602;28;20007;-51
2023/03/20 04:05:40;;;;;;;;;;;;;;;17.70;58.57;98840.16;2077171;28;19933;-61
2023/03/20 04:06:42;;;;;;;;;;;;;;;17.70;58.86;98837.47;2074400;28;20434;-56
2023/03/20 04:07:43;;;;;;;;;;;;;;;17.70;58.68;98832.94;2073973;28;19930;-53
2023/03/20 04:08:45;;;;;;;;;;;;;;;17.70;58.78;98837.47;2075725;28;19968;-51
2023/03/20 04:09:45;;;;;;;;;;;;;;;17.69;58.72;98842.00;2074475;28;19928;-55
2023/03/20 04:10:47;;;;;;;;;;;;;;;17.68;58.71;98832.28;2080163;28;20051;-55
2023/03/20 04:11:50;;;;;;;;;;;;;;;17.67;58.67;98844.03;2074103;28;19933;-61
2023/03/20 04:12:51;;;;;;;;;;;;;;;17.68;58.81;98839.50;2074247;28;20051;-57
2023/03/20 04:13:52;;;;;;;;;;;;;;;17.68;58.89;98850.25;2080093;28;19978;-55
2023/03/20 04:14:53;;;;;;;;;;;;;;;17.68;58.83;98843.00;2079936;28;20136;-50
2023/03/20 04:15:54;;;;;;;;;;;;;;;17.67;58.90;98837.84;2086185;28;19940;-58
2023/03/20 04:16:55;;;;;;;;;;;;;;;17.66;58.96;98837.00;2086033;28;20298;-49
2023/03/20 04:17:56;;;;;;;;;;;;;;;17.66;58.87;98831.63;2086586;28;19982;-57
2023/03/20 04:18:57;;;;;;;;;;;;;;;17.64;58.80;98826.47;2087048;28;19928;-50
2023/03/20 04:19:58;;;;;;;;;;;;;;;17.65;58.77;98828.13;2087277;28;19962;-56
2023/03/20 04:20:59;;;;;;;;;;;;;;;17.65;58.87;98830.00;2086639;28;19928;-55
2023/03/20 04:22:00;;;;;;;;;;;;;;;17.64;59.06;98821.13;2088399;28;21836;-50
2023/03/20 04:23:03;;;;;;;;;;;;;;;17.65;58.82;98828.13;2087013;28;19925;-55
2023/03/20 04:24:04;;;;;;;;;;;;;;;17.67;58.88;98829.81;2086279;28;20410;-56
2023/03/20 04:25:06;;;;;;;;;;;;;;;17.65;58.79;98828.13;2086252;28;19936;-59
2023/03/20 04:26:07;;;;;;;;;;;;;;;17.65;58.86;98833.50;2088026;28;19933;-55
2023/03/20 04:27:10;;;;;;;;;;;;;;;17.65;59.04;98833.50;2087187;28;19925;-56
2023/03/20 04:28:15;;;;;;;;;;;;;;;17.65;58.78;98830.81;2086446;28;19937;-60
2023/03/20 04:29:15;;;;;;;;;;;;;;;17.65;58.81;98836.19;2087675;28;19933;-60
2023/03/20 04:30:17;;;;;;;;;;;;;;;17.68;58.92;98837.66;2084116;28;19928;-55
2023/03/20 04:31:17;;;;;;;;;;;;;;;17.66;59.00;98853.09;2087669;28;19925;-57
2023/03/20 04:32:19;;;;;;;;;;;;;;;17.64;58.87;98845.25;2089264;27;19928;-60
2023/03/20 04:33:19;;;;;;;;;;;;;;;17.67;58.83;98851.28;2085961;28;19928;-56
2023/03/20 04:34:21;;;;;;;;;;;;;;;17.67;58.98;98849.41;2086431;28;19928;-59
2023/03/20 04:35:22;;;;;;;;;;;;;;;17.68;59.10;98848.38;2087164;28;19963;-59
2023/03/20 04:36:23;;;;;;;;;;;;;;;17.69;58.75;98838.47;2087430;28;20523;-58
2023/03/20 04:37:24;;;;;;;;;;;;;;;17.71;59.04;98844.50;2087482;28;19998;-51
2023/03/20 04:38:25;;;;;;;;;;;;;;;17.75;58.69;98843.91;2087047;28;19933;-52
2023/03/20 04:39:26;;;;;;;;;;;;;;;17.78;58.71;98843.56;2087769;28;19997;-52
2023/03/20 04:40:27;;;;;;;;;;;;;;;17.82;58.80;98852.03;2078246;28;20409;-49
2023/03/20 04:41:28;;;;;;;;;;;;;;;17.85;58.65;98848.97;2078481;28;20567;-57
2023/03/20 04:42:31;;;;;;;;;;;;;;;17.87;58.80;98844.25;2077056;28;19978;-59
2023/03/20 04:43:31;;;;;;;;;;;;;;;17.89;58.62;98842.22;2077994;28;19958;-60
2023/03/20 04:44:33;;;;;;;;;;;;;;;17.93;58.86;98842.66;2075925;28;19981;-53
2023/03/20 04:45:33;;;;;;;;;;;;;;;17.96;58.62;98840.41;2080071;28;19929;-61
2023/03/20 04:46:34;;;;;;;;;;;;;;;18.01;58.57;98842.50;2075338;28;19998;-60
2023/03/20 04:47:35;;;;;;;;;;;;;;;18.05;58.51;98838.41;2079566;28;19971;-56
2023/03/20 04:48:36;;;;;;;;;;;;;;;18.09;58.48;98842.38;2077135;28;19955;-58
2023/03/20 04:49:37;;;;;;;;;;;;;;;18.12;58.41;98835.78;2076404;28;21556;-57
2023/03/20 04:50:38;;;;;;;;;;;;;;;18.17;58.37;98836.84;2078968;28;19933;-52
2023/03/20 04:51:39;;;;;;;;;;;;;;;18.20;58.44;98833.78;2078349;28;19973;-49
2023/03/20 04:52:40;;;;;;;;;;;;;;;18.23;58.57;98833.38;2077485;28;19932;-49
2023/03/20 04:53:41;;;;;;;;;;;;;;;18.26;58.27;98837.53;2084505;28;20007;-47
2023/03/20 04:54:42;;;;;;;;;;;;;;;18.30;58.20;98828.03;2087689;28;19935;-53
2023/03/20 04:55:43;;;;;;;;;;;;;;;18.33;58.49;98832.19;2079599;28;19932;-54
2023/03/20 04:56:45;;;;;;;;;;;;;;;18.36;58.22;98837.16;2077810;27;19932;-57
2023/03/20 04:57:46;;;;;;;;;;;;;;;18.39;58.12;98826.88;2077919;28;19925;-54
2023/03/20 04:58:48;;;;;;;;;;;;;;;18.42;58.30;98823.78;2081695;28;19932;-56
2023/03/20 04:59:48;;;;;;;;;;;;;;;18.46;57.84;98822.34;2078078;28;19985;-54
2023/03/20 05:00:50;;;;;;;;;;;;;;;18.49;58.06;98821.13;2084038;28;20897;-51
2023/03/20 05:01:50;;;;;;;;;;;;;;;18.51;58.26;98822.59;2074604;28;19929;-61
2023/03/20 05:02:52;;;;;;;;;;;;;;;18.53;58.16;98831.28;2078257;28;19936;-56
2023/03/20 05:03:59;;;;;;;;;;;;;;;18.57;58.29;98820.97;2078716;28;19954;-61
2023/03/20 05:05:00;;;;;;;;;;;;;;;18.61;57.98;98827.63;2083642;28;20310;-51
2023/03/20 05:06:01;;;;;;;;;;;;;;;18.64;58.04;98821.03;2077483;28;19929;-60
2023/03/20 05:07:02;;;;;;;;;;;;;;;18.68;58.03;98817.72;2080501;28;20011;-52
2023/03/20 05:08:03;;;;;;;;;;;;;;;18.71;57.79;98820.00;2081392;28;19929;-57
2023/03/20 05:09:05;;;;;;;;;;;;;;;18.75;57.90;98817.81;2080347;28;19968;-58
2023/03/20 05:10:05;;;;;;;;;;;;;;;18.77;57.87;98823.78;2077492;28;19932;-58
2023/03/20 05:11:07;;;;;;;;;;;;;;;18.81;57.81;98816.16;2079603;28;20433;-54
2023/03/20 05:12:08;;;;;;;;;;;;;;;18.83;57.70;98814.09;2077910;28;19932;-53
2023/03/20 05:13:10;;;;;;;;;;;;;;;18.85;57.41;98820.94;2080727;28;20038;-55
2023/03/20 05:14:11;;;;;;;;;;;;;;;18.88;57.48;98817.00;2075495;28;19937;-57
2023/03/20 05:15:12;;;;;;;;;;;;;;;18.90;57.61;98813.09;2078380;28;19936;-55
2023/03/20 05:16:13;;;;;;;;;;;;;;;18.93;57.72;98809.19;2078797;28;19936;-51
2023/03/20 05:17:14;;;;;;;;;;;;;;;18.94;57.41;98806.31;2080565;28;19932;-56
2023/03/20 05:18:15;;;;;;;;;;;;;;;18.97;57.38;98805.91;2076584;28;20418;-59
2023/03/20 05:19:16;;;;;;;;;;;;;;;18.99;57.32;98803.00;2077618;28;19925;-55
2023/03/20 05:20:17;;;;;;;;;;;;;;;19.01;57.29;98803.63;2078472;28;20443;-51
2023/03/20 05:21:18;;;;;;;;;;;;;;;19.05;57.13;98812.94;2078462;28;19932;-54
2023/03/20 05:22:19;;;;;;;;;;;;;;;19.07;57.29;98808.19;2077650;28;19925;-54
2023/03/20 05:23:20;;;;;;;;;;;;;;;19.09;57.27;98810.69;2077506;28;20504;-52
2023/03/20 05:24:21;;;;;;;;;;;;;;;19.10;57.25;98802.41;2077768;28;20029;-59
2023/03/20 05:25:22;;;;;;;;;;;;;;;19.11;57.23;98801.38;2077207;28;19936;-54
2023/03/20 05:26:23;;;;;;;;;;;;;;;19.13;57.18;98806.53;2076614;28;19929;-53
2023/03/20 05:27:24;;;;;;;;;;;;;;;19.15;57.29;98809.88;2078838;28;19932;-54
2023/03/20 05:28:26;;;;;;;;;;;;;;;19.17;57.27;98807.81;2076450;28;19989;-54
2023/03/20 05:29:28;;;;;;;;;;;;;;;19.19;57.20;98808.41;2078795;28;20039;-50
2023/03/20 05:30:28;;;;;;;;;;;;;;;19.20;57.19;98812.78;2076339;28;19928;-55